createdAt,value
2018-06-10T00:00:42.325Z,22.23
2018-06-10T00:03:10.942Z,17.40
2018-06-10T00:05:39.527Z,14.37
2018-06-10T00:08:08.225Z,22.40
2018-06-10T00:10:37.474Z,19.10
2018-06-10T00:13:06.113Z,18.53
2018-06-10T00:15:34.759Z,19.60
2018-06-10T00:18:03.371Z,20.90
2018-06-10T00:20:32.028Z,16.40
2018-06-10T00:23:00.657Z,17.70
2018-06-10T00:25:29.379Z,18.37
2018-06-10T00:27:58.058Z,22.70
2018-06-10T00:30:26.665Z,19.00
2018-06-10T00:32:55.305Z,31.03
2018-06-10T00:35:24.024Z,23.97
2018-06-10T00:37:52.665Z,26.97
2018-06-10T00:40:21.385Z,20.63
2018-06-10T00:42:50.042Z,23.17
2018-06-10T00:45:18.741Z,23.37
2018-06-10T00:47:47.412Z,31.13
2018-06-10T00:50:16.097Z,24.40
2018-06-10T00:52:44.796Z,25.40
2018-06-10T00:55:13.451Z,23.10
2018-06-10T00:57:42.065Z,23.53
2018-06-10T01:00:10.714Z,27.57
2018-06-10T01:02:39.317Z,23.10
2018-06-10T01:05:07.913Z,22.33
2018-06-10T01:07:36.595Z,20.90
2018-06-10T01:10:05.287Z,25.30
2018-06-10T01:12:33.926Z,21.13
2018-06-10T01:15:02.561Z,21.63
2018-06-10T01:17:31.202Z,25.50
2018-06-10T01:19:59.866Z,26.63
2018-06-10T01:22:28.481Z,32.53
2018-06-10T01:24:57.098Z,22.60
2018-06-10T01:27:25.729Z,29.07
2018-06-10T01:29:54.374Z,31.70
2018-06-10T01:32:23.089Z,23.30
2018-06-10T01:34:51.685Z,30.47
2018-06-10T01:37:20.260Z,25.37
2018-06-10T01:39:48.831Z,25.93
2018-06-10T01:42:17.446Z,22.87
2018-06-10T01:44:46.353Z,25.70
2018-06-10T01:47:15.006Z,25.90
2018-06-10T01:49:43.628Z,25.13
2018-06-10T01:52:12.243Z,25.67
2018-06-10T01:54:40.877Z,34.90
2018-06-10T01:57:09.507Z,25.60
2018-06-10T01:59:38.091Z,26.10
2018-06-10T02:02:06.745Z,25.20
2018-06-10T02:04:35.365Z,24.47
2018-06-10T02:07:03.998Z,24.03
2018-06-10T02:09:32.609Z,28.63
2018-06-10T02:12:01.227Z,26.83
2018-06-10T02:14:36.050Z,31.90
2018-06-10T02:17:04.880Z,29.33
2018-06-10T02:19:33.466Z,23.30
2018-06-10T02:22:02.666Z,30.80
2018-06-10T02:24:32.245Z,26.77
2018-06-10T02:27:00.822Z,33.17
2018-06-10T02:29:29.460Z,29.83
2018-06-10T02:31:58.093Z,27.17
2018-06-10T02:34:26.685Z,26.87
2018-06-10T02:36:55.806Z,32.83
2018-06-10T02:39:24.737Z,27.13
2018-06-10T02:41:53.362Z,23.57
2018-06-10T02:44:21.997Z,28.17
2018-06-10T02:46:50.631Z,26.60
2018-06-10T02:49:19.216Z,24.27
2018-06-10T02:51:47.820Z,26.47
2018-06-10T02:54:16.444Z,29.30
2018-06-10T02:56:45.088Z,34.00
2018-06-10T02:59:13.784Z,27.30
2018-06-10T03:01:42.381Z,30.27
2018-06-10T03:04:10.976Z,22.40
2018-06-10T03:06:39.590Z,26.70
2018-06-10T03:09:08.331Z,21.70
2018-06-10T03:11:36.953Z,22.10
2018-06-10T03:14:05.622Z,16.40
2018-06-10T03:16:34.256Z,20.27
2018-06-10T03:19:02.888Z,20.13
2018-06-10T03:21:31.518Z,19.00
2018-06-10T03:24:00.139Z,22.83
2018-06-10T03:26:28.845Z,17.60
2018-06-10T03:28:57.660Z,20.00
2018-06-10T03:31:26.275Z,23.17
2018-06-10T03:33:54.880Z,13.87
2018-06-10T03:36:23.540Z,13.90
2018-06-10T03:38:52.133Z,16.20
2018-06-10T03:41:20.720Z,17.63
2018-06-10T03:43:49.365Z,17.03
2018-06-10T03:46:17.930Z,21.60
2018-06-10T03:48:46.559Z,23.60
2018-06-10T03:51:15.235Z,22.07
2018-06-10T03:53:43.784Z,28.50
2018-06-10T03:56:12.516Z,23.63
2018-06-10T03:58:41.124Z,26.50
2018-06-10T04:01:09.709Z,24.17
2018-06-10T04:03:38.301Z,26.50
2018-06-10T04:06:06.960Z,21.23
2018-06-10T04:08:35.609Z,30.77
2018-06-10T04:11:04.211Z,22.00
2018-06-10T04:13:32.850Z,18.93
2018-06-10T04:16:01.453Z,22.60
2018-06-10T04:18:30.054Z,17.17
2018-06-10T04:20:58.649Z,14.37
2018-06-10T04:23:27.277Z,15.27
2018-06-10T04:25:55.869Z,19.73
2018-06-10T04:28:25.424Z,15.23
2018-06-10T04:30:54.009Z,15.97
2018-06-10T04:33:22.644Z,14.63
2018-06-10T04:35:51.289Z,14.17
2018-06-10T04:38:19.889Z,13.17
2018-06-10T04:40:48.478Z,13.00
2018-06-10T04:43:17.095Z,33.17
2018-06-10T04:45:45.715Z,14.60
2018-06-10T04:48:14.330Z,15.30
2018-06-10T04:50:42.978Z,16.93
2018-06-10T04:53:11.666Z,19.67
2018-06-10T04:55:40.381Z,23.03
2018-06-10T04:58:09.046Z,21.17
2018-06-10T05:00:37.615Z,18.60
2018-06-10T05:03:06.332Z,20.67
2018-06-10T05:05:34.946Z,18.67
2018-06-10T05:08:03.585Z,23.33
2018-06-10T05:10:32.209Z,20.20
2018-06-10T05:13:00.824Z,14.13
2018-06-10T05:15:29.434Z,14.83
2018-06-10T05:17:58.017Z,16.13
2018-06-10T05:20:26.709Z,13.10
2018-06-10T05:22:55.310Z,13.60
2018-06-10T05:25:24.074Z,17.00
2018-06-10T05:27:52.781Z,17.03
2018-06-10T05:30:21.350Z,19.97
2018-06-10T05:32:50.132Z,16.27
2018-06-10T05:35:18.797Z,17.30
2018-06-10T05:37:47.417Z,13.10
2018-06-10T05:40:16.047Z,14.83
2018-06-10T05:42:44.740Z,15.43
2018-06-10T05:45:13.642Z,12.70
2018-06-10T05:47:42.237Z,14.53
2018-06-10T05:50:10.978Z,16.80
2018-06-10T05:52:39.673Z,12.60
2018-06-10T05:55:08.304Z,19.43
2018-06-10T05:57:37.006Z,16.53
2018-06-10T06:00:05.990Z,12.87
2018-06-10T06:02:34.648Z,23.70
2018-06-10T06:05:03.267Z,22.73
2018-06-10T06:07:32.035Z,15.23
2018-06-10T06:10:00.695Z,12.67
2018-06-10T06:12:29.342Z,19.63
2018-06-10T06:14:57.944Z,17.27
2018-06-10T06:17:26.638Z,17.17
2018-06-10T06:19:55.323Z,16.10
2018-06-10T06:22:23.967Z,16.70
2018-06-10T06:24:52.638Z,13.63
2018-06-10T06:27:21.342Z,19.83
2018-06-10T06:29:49.920Z,15.87
2018-06-10T06:32:18.607Z,23.00
2018-06-10T06:34:47.261Z,15.60
2018-06-10T06:37:15.881Z,13.60
2018-06-10T06:39:44.588Z,18.90
2018-06-10T06:42:13.232Z,17.87
2018-06-10T06:44:41.862Z,18.87
2018-06-10T06:47:10.545Z,16.27
2018-06-10T06:49:39.164Z,19.30
2018-06-10T06:52:07.814Z,15.70
2018-06-10T06:54:36.485Z,13.20
2018-06-10T06:57:05.166Z,17.07
2018-06-10T06:59:33.877Z,16.10
2018-06-10T07:02:02.594Z,11.77
2018-06-10T07:04:31.230Z,14.53
2018-06-10T07:06:59.895Z,16.07
2018-06-10T07:09:32.179Z,11.93
2018-06-10T07:12:00.971Z,26.23
2018-06-10T07:14:29.608Z,14.07
2018-06-10T07:16:59.596Z,14.07
2018-06-10T07:19:28.331Z,15.77
2018-06-10T07:21:57.079Z,14.53
2018-06-10T07:24:25.777Z,18.60
2018-06-10T07:26:54.432Z,20.90
2018-06-10T07:29:23.060Z,11.83
2018-06-10T07:31:52.744Z,14.10
2018-06-10T07:34:21.370Z,17.97
2018-06-10T07:36:50.077Z,15.83
2018-06-10T07:39:18.766Z,18.00
2018-06-10T07:41:47.420Z,15.80
2018-06-10T07:44:16.064Z,12.20
2018-06-10T07:46:44.724Z,13.70
2018-06-10T07:49:13.353Z,9.23
2018-06-10T07:51:41.954Z,9.73
2018-06-10T07:54:10.592Z,8.83
2018-06-10T07:56:39.182Z,10.20
2018-06-10T07:59:07.861Z,8.60
2018-06-10T08:01:36.538Z,9.90
2018-06-10T08:04:05.234Z,7.20
2018-06-10T08:06:33.890Z,8.80
2018-06-10T08:09:02.764Z,8.27
2018-06-10T08:11:31.448Z,11.90
2018-06-10T08:14:00.075Z,7.80
2018-06-10T08:16:28.739Z,12.93
2018-06-10T08:18:57.767Z,11.67
2018-06-10T08:21:26.455Z,10.63
2018-06-10T08:23:55.145Z,11.27
2018-06-10T08:26:24.609Z,5.87
2018-06-10T08:29:04.142Z,8.67
2018-06-10T08:31:32.890Z,8.43
2018-06-10T08:34:01.543Z,10.33
2018-06-10T08:36:32.076Z,9.83
2018-06-10T08:39:01.320Z,12.27
2018-06-10T08:41:31.748Z,9.60
2018-06-10T08:44:00.423Z,12.63
2018-06-10T08:46:29.174Z,15.87
2018-06-10T08:48:57.822Z,9.70
2018-06-10T08:51:28.123Z,8.70
2018-06-10T08:53:56.780Z,8.90
2018-06-10T08:56:26.854Z,13.20
2018-06-10T08:58:55.955Z,6.87
2018-06-10T09:01:24.905Z,11.60
2018-06-10T09:16:43.599Z,11.87
2018-06-10T09:19:12.207Z,9.30
2018-06-10T09:21:41.017Z,14.60
2018-06-10T09:24:10.157Z,9.13
2018-06-10T09:26:38.786Z,9.40
2018-06-10T09:29:07.494Z,10.73
2018-06-10T09:31:36.127Z,9.40
2018-06-10T09:34:04.882Z,12.60
2018-06-10T09:36:33.545Z,8.93
2018-06-10T09:39:02.350Z,14.50
2018-06-10T09:41:31.018Z,6.37
2018-06-10T09:43:59.693Z,7.20
2018-06-10T09:46:29.446Z,10.20
2018-06-10T09:48:58.257Z,9.33
2018-06-10T09:51:26.915Z,16.30
2018-06-10T09:53:55.992Z,9.97
2018-06-10T09:56:25.395Z,8.27
2018-06-10T09:58:54.305Z,8.53
2018-06-10T10:01:23.167Z,13.03
2018-06-10T10:03:51.847Z,7.90
2018-06-10T10:06:20.535Z,10.87
2018-06-10T10:08:49.188Z,7.20
2018-06-10T10:11:17.802Z,8.00
2018-06-10T10:13:46.445Z,11.33
2018-06-10T10:16:15.074Z,7.70
2018-06-10T10:18:45.811Z,12.33
2018-06-10T10:21:14.496Z,8.93
2018-06-10T10:23:43.132Z,11.37
2018-06-10T10:26:11.770Z,11.10
2018-06-10T10:28:40.380Z,11.27
2018-06-10T10:31:09.148Z,16.63
2018-06-10T10:33:37.749Z,8.73
2018-06-10T10:36:06.368Z,9.60
2018-06-10T10:38:35.091Z,14.30
2018-06-10T10:41:03.697Z,10.63
2018-06-10T10:43:32.318Z,10.80
2018-06-10T10:46:00.954Z,11.90
2018-06-10T10:48:29.560Z,7.37
2018-06-10T10:50:59.583Z,11.30
2018-06-10T10:53:28.228Z,6.37
2018-06-10T10:56:00.580Z,9.70
2018-06-10T10:58:29.257Z,6.70
2018-06-10T11:00:57.846Z,6.23
2018-06-10T11:03:33.245Z,6.80
2018-06-10T11:06:01.843Z,10.17
2018-06-10T11:08:31.138Z,12.00
2018-06-10T11:10:59.763Z,8.50
2018-06-10T11:13:28.396Z,5.50
2018-06-10T11:15:57.018Z,7.50
2018-06-10T11:18:25.646Z,7.47
2018-06-10T11:20:54.247Z,6.23
2018-06-10T11:23:25.216Z,6.23
2018-06-10T11:25:55.381Z,10.40
2018-06-10T11:28:24.525Z,6.53
2018-06-10T11:30:53.594Z,6.97
2018-06-10T11:33:22.926Z,6.67
2018-06-10T11:35:51.591Z,9.10
2018-06-10T11:38:20.221Z,7.97
2018-06-10T11:40:48.937Z,12.60
2018-06-10T11:43:17.537Z,8.07
2018-06-10T11:45:46.244Z,9.10
2018-06-10T11:48:14.822Z,8.33
2018-06-10T11:50:44.541Z,6.70
2018-06-10T11:53:13.137Z,12.70
2018-06-10T11:55:41.804Z,15.73
2018-06-10T11:58:10.452Z,15.30
2018-06-10T12:00:39.106Z,11.17
2018-06-10T12:03:07.732Z,13.70
2018-06-10T12:05:36.346Z,12.70
2018-06-10T12:08:05.166Z,18.93
2018-06-10T12:10:33.750Z,10.47
2018-06-10T12:13:02.443Z,18.03
2018-06-10T12:15:31.098Z,23.40
2018-06-10T12:17:59.683Z,12.20
2018-06-10T12:20:28.297Z,12.90
2018-06-10T12:22:57.128Z,10.83
2018-06-10T12:25:25.699Z,21.87
2018-06-10T12:27:54.333Z,17.73
2018-06-10T12:40:03.195Z,16.13
2018-06-10T12:42:31.926Z,12.73
2018-06-10T12:45:00.610Z,13.90
2018-06-10T12:47:29.277Z,10.53
2018-06-10T12:49:57.862Z,9.97
2018-06-10T12:52:26.460Z,9.60
2018-06-10T12:54:55.158Z,10.13
2018-06-10T12:57:23.778Z,13.20
2018-06-10T12:59:56.028Z,9.03
2018-06-10T13:02:24.585Z,10.03
2018-06-10T13:04:53.239Z,9.87
2018-06-10T13:07:22.768Z,8.53
2018-06-10T13:09:55.366Z,9.13
2018-06-10T13:12:24.129Z,7.50
2018-06-10T13:14:52.774Z,8.83
2018-06-10T13:17:21.416Z,13.63
2018-06-10T13:19:50.098Z,8.47
2018-06-10T13:22:18.751Z,8.43
2018-06-10T13:24:47.397Z,9.30
2018-06-10T13:27:16.061Z,5.67
2018-06-10T13:29:44.704Z,10.63
2018-06-10T13:32:13.354Z,15.83
2018-06-10T13:34:41.967Z,10.07
2018-06-10T13:37:10.597Z,8.70
2018-06-10T13:39:43.583Z,10.60
2018-06-10T13:42:12.261Z,11.50
2018-06-10T13:44:40.856Z,11.70
2018-06-10T13:47:09.564Z,6.97
2018-06-10T13:49:38.182Z,7.50
2018-06-10T13:52:06.853Z,10.13
2018-06-10T13:54:35.574Z,9.13
2018-06-10T13:57:04.226Z,9.53
2018-06-10T13:59:32.923Z,11.27
2018-06-10T14:02:01.765Z,12.37
2018-06-10T14:04:30.421Z,9.40
2018-06-10T14:06:59.057Z,11.30
2018-06-10T14:09:27.703Z,9.33
2018-06-10T14:11:57.939Z,10.80
2018-06-10T14:14:26.555Z,12.50
2018-06-10T14:16:55.183Z,11.67
2018-06-10T14:19:23.833Z,6.80
2018-06-10T14:21:52.480Z,8.87
2018-06-10T14:24:21.102Z,13.33
2018-06-10T14:26:49.765Z,14.07
2018-06-10T14:29:18.386Z,12.70
2018-06-10T14:31:48.062Z,10.77
2018-06-10T14:34:16.742Z,12.57
2018-06-10T14:36:45.363Z,8.83
2018-06-10T14:39:14.047Z,9.83
2018-06-10T14:41:42.781Z,13.33
2018-06-10T14:44:11.570Z,13.47
2018-06-10T14:46:40.226Z,13.13
2018-06-10T14:49:08.881Z,8.67
2018-06-10T14:51:37.511Z,12.37
2018-06-10T14:54:06.118Z,10.10
2018-06-10T14:56:34.763Z,8.63
2018-06-10T14:59:03.421Z,15.00
2018-06-10T15:01:32.039Z,5.10
2018-06-10T15:04:00.808Z,8.73
2018-06-10T15:06:29.677Z,8.80
2018-06-10T15:08:58.370Z,6.20
2018-06-10T15:11:27.077Z,7.33
2018-06-10T15:13:56.097Z,7.87
2018-06-10T15:16:24.738Z,10.05
2018-06-10T15:18:54.000Z,7.12
2018-06-10T15:21:22.998Z,7.10
2018-06-10T15:23:51.799Z,9.95
2018-06-10T15:26:23.787Z,5.10
2018-06-10T15:28:53.191Z,3.77
2018-06-10T15:31:21.907Z,7.22
2018-06-10T15:33:50.507Z,5.60
2018-06-10T15:36:20.176Z,3.85
2018-06-10T15:38:48.819Z,7.78
2018-06-10T15:41:17.493Z,7.10
2018-06-10T15:43:46.509Z,5.80
2018-06-10T15:46:15.156Z,7.22
2018-06-10T15:48:43.853Z,6.40
2018-06-10T15:51:12.534Z,6.70
2018-06-10T15:53:41.290Z,7.07
2018-06-10T15:56:09.915Z,7.03
2018-06-10T15:58:38.968Z,7.03
2018-06-10T16:01:08.256Z,9.23
2018-06-10T16:03:38.219Z,7.90
2018-06-10T16:06:07.001Z,10.57
2018-06-10T16:08:35.812Z,10.37
2018-06-10T16:11:05.227Z,13.03
2018-06-10T16:13:33.965Z,8.10
2018-06-10T16:16:02.710Z,10.17
2018-06-10T16:18:31.479Z,13.60
2018-06-10T16:21:00.258Z,10.70
2018-06-10T16:23:29.062Z,26.97
2018-06-10T16:25:58.799Z,8.83
2018-06-10T16:28:28.532Z,12.10
2018-06-10T16:30:57.326Z,8.50
2018-06-10T16:33:26.230Z,12.83
2018-06-10T16:35:54.984Z,14.17
2018-06-10T16:38:23.694Z,7.13
2018-06-10T16:40:52.519Z,14.33
2018-06-10T16:43:21.306Z,7.40
2018-06-10T16:45:50.080Z,8.33
2018-06-10T16:48:18.805Z,13.73
2018-06-10T16:50:47.605Z,13.60
2018-06-10T16:53:16.331Z,11.10
2018-06-10T16:55:45.040Z,11.63
2018-06-10T16:58:13.866Z,13.57
2018-06-10T17:00:42.695Z,9.70
2018-06-10T17:03:11.382Z,7.83
2018-06-10T17:05:40.106Z,8.80
2018-06-10T17:08:08.936Z,20.40
2018-06-10T17:10:37.586Z,13.33
2018-06-10T17:13:06.251Z,9.10
2018-06-10T17:15:34.930Z,14.33
2018-06-10T17:18:04.155Z,10.87
2018-06-10T17:20:32.920Z,12.37
2018-06-10T17:23:01.595Z,10.77
2018-06-10T17:25:30.242Z,13.77
2018-06-10T17:27:58.988Z,7.93
2018-06-10T17:30:28.928Z,11.83
2018-06-10T17:32:57.589Z,15.90
2018-06-10T17:35:26.255Z,11.53
2018-06-10T17:37:54.948Z,11.93
2018-06-10T17:40:23.546Z,7.40
2018-06-10T17:42:52.209Z,12.70
2018-06-10T17:45:20.894Z,8.50
2018-06-10T17:47:49.556Z,8.23
2018-06-10T17:50:18.261Z,9.07
2018-06-10T17:52:47.003Z,9.80
2018-06-10T17:55:15.745Z,8.80
2018-06-10T17:57:44.357Z,8.00
2018-06-10T18:00:13.026Z,7.87
2018-06-10T18:02:41.715Z,10.83
2018-06-10T18:05:10.406Z,13.27
2018-06-10T18:07:39.040Z,10.03
2018-06-10T18:10:07.822Z,11.60
2018-06-10T18:12:36.637Z,10.33
2018-06-10T18:15:05.372Z,13.57
2018-06-10T18:17:34.078Z,9.67
2018-06-10T18:20:03.146Z,13.20
2018-06-10T18:22:31.835Z,9.30
2018-06-10T18:25:00.503Z,16.30
2018-06-10T18:27:29.190Z,9.30
2018-06-10T18:29:57.870Z,9.80
2018-06-10T18:32:26.539Z,9.00
2018-06-10T18:34:55.181Z,12.73
2018-06-10T18:37:24.563Z,8.10
2018-06-10T18:39:53.260Z,15.53
2018-06-10T18:42:21.902Z,9.77
2018-06-10T18:44:50.610Z,14.43
2018-06-10T18:47:19.344Z,17.47
2018-06-10T18:49:48.047Z,16.17
2018-06-10T18:52:16.711Z,15.40
2018-06-10T18:54:45.366Z,9.50
2018-06-10T18:57:14.056Z,11.33
2018-06-10T18:59:42.762Z,16.50
2018-06-10T19:02:11.481Z,16.20
2018-06-10T19:04:40.286Z,11.60
2018-06-10T19:07:09.002Z,12.63
2018-06-10T19:09:37.739Z,16.70
2018-06-10T19:12:06.523Z,14.37
2018-06-10T19:14:35.291Z,11.70
2018-06-10T19:17:04.136Z,13.13
2018-06-10T19:19:32.792Z,17.43
2018-06-10T19:22:01.576Z,12.83
2018-06-10T19:24:30.232Z,13.07
2018-06-10T19:26:58.923Z,10.60
2018-06-10T19:29:27.606Z,13.13
2018-06-10T19:31:56.274Z,12.50
2018-06-10T19:34:25.469Z,17.23
2018-06-10T19:36:54.229Z,13.73
2018-06-10T19:39:22.931Z,10.80
2018-06-10T19:41:51.611Z,11.00
2018-06-10T19:44:20.299Z,13.30
2018-06-10T19:46:49.035Z,14.17
2018-06-10T19:49:17.703Z,13.77
2018-06-10T19:51:46.431Z,11.90
2018-06-10T19:54:15.726Z,10.80
2018-06-10T19:56:44.457Z,20.17
2018-06-10T19:59:13.205Z,12.60
2018-06-10T20:01:41.886Z,16.03
2018-06-10T20:04:10.578Z,25.20
2018-06-10T20:06:39.330Z,20.17
2018-06-10T20:09:08.423Z,14.17
2018-06-10T20:11:37.090Z,14.63
2018-06-10T20:14:05.748Z,14.43
2018-06-10T20:16:34.461Z,15.03
2018-06-10T20:19:03.156Z,16.13
2018-06-10T20:21:31.862Z,19.77
2018-06-10T20:24:00.660Z,13.00
2018-06-10T20:26:29.364Z,15.87
2018-06-10T20:28:58.099Z,13.63
2018-06-10T20:31:26.875Z,18.00
2018-06-10T20:33:56.145Z,14.10
2018-06-10T20:36:24.897Z,15.60
2018-06-10T20:38:53.501Z,14.23
2018-06-10T20:41:22.142Z,11.77
2018-06-10T20:43:51.465Z,13.60
2018-06-10T20:46:21.758Z,16.63
2018-06-10T20:48:50.389Z,16.00
2018-06-10T20:51:19.623Z,15.80
2018-06-10T20:53:48.279Z,22.40
2018-06-10T20:56:16.925Z,18.20
2018-06-10T20:58:45.556Z,18.27
2018-06-10T21:01:14.193Z,25.60
2018-06-10T21:03:42.831Z,24.00
2018-06-10T21:06:11.448Z,18.40
2018-06-10T21:08:40.109Z,20.77
2018-06-10T21:11:08.777Z,17.10
2018-06-10T21:13:37.407Z,24.07
2018-06-10T21:16:06.083Z,16.80
2018-06-10T21:18:34.706Z,18.23
2018-06-10T21:21:03.366Z,19.20
2018-06-10T21:23:32.048Z,25.70
2018-06-10T21:26:00.637Z,19.13
2018-06-10T21:28:29.239Z,22.07
2018-06-10T21:30:57.851Z,18.73
2018-06-10T21:33:26.503Z,22.30
2018-06-10T21:35:55.137Z,21.63
2018-06-10T21:38:24.162Z,20.73
2018-06-10T21:40:52.816Z,23.23
2018-06-10T21:43:21.441Z,20.63
2018-06-10T21:45:50.057Z,24.70
2018-06-10T21:48:18.741Z,23.50
2018-06-10T21:50:47.336Z,24.50
2018-06-10T21:53:15.987Z,18.53
2018-06-10T21:55:44.662Z,22.57
2018-06-10T21:58:13.286Z,25.53
2018-06-10T22:00:42.016Z,19.20
2018-06-10T22:03:10.648Z,18.50
2018-06-10T22:05:39.263Z,21.53
2018-06-10T22:08:07.892Z,20.70
2018-06-10T22:10:36.568Z,24.53
2018-06-10T22:13:05.173Z,20.20
2018-06-10T22:15:33.790Z,25.80
2018-06-10T22:18:02.446Z,16.40
2018-06-10T22:20:31.047Z,21.87
2018-06-10T22:22:59.639Z,19.17
2018-06-10T22:25:28.359Z,19.27
2018-06-10T22:27:56.977Z,16.87
2018-06-10T22:30:25.604Z,22.40
2018-06-10T22:32:54.249Z,24.77
2018-06-10T22:35:22.879Z,15.77
2018-06-10T22:37:51.473Z,19.97
2018-06-10T22:40:20.169Z,16.70
2018-06-10T22:42:48.746Z,21.13
2018-06-10T22:45:17.329Z,19.30
2018-06-10T22:47:45.953Z,17.10
2018-06-10T22:50:14.713Z,20.97
2018-06-10T22:52:43.488Z,14.20
2018-06-10T22:55:12.824Z,15.00
2018-06-10T22:57:41.412Z,20.10
2018-06-10T23:00:10.034Z,15.77
2018-06-10T23:02:38.625Z,19.20
2018-06-10T23:05:07.252Z,19.03
2018-06-10T23:07:35.862Z,17.30
2018-06-10T23:10:04.521Z,15.97
2018-06-10T23:12:33.094Z,24.10
2018-06-10T23:15:01.660Z,18.30
2018-06-10T23:17:30.307Z,22.63
2018-06-10T23:19:58.882Z,16.67
2018-06-10T23:22:27.481Z,20.20
2018-06-10T23:24:56.074Z,15.63
2018-06-10T23:27:24.661Z,18.90
2018-06-10T23:29:53.312Z,15.37
2018-06-10T23:32:21.979Z,16.23
2018-06-10T23:34:50.559Z,21.60
2018-06-10T23:37:19.130Z,19.03
2018-06-10T23:39:47.685Z,18.60
2018-06-10T23:42:16.261Z,19.10
2018-06-10T23:44:44.845Z,20.70
2018-06-10T23:47:13.404Z,17.77
2018-06-10T23:49:42.009Z,22.57
2018-06-10T23:52:10.585Z,19.10
2018-06-10T23:54:39.154Z,24.90
2018-06-10T23:57:07.741Z,21.77
2018-06-10T23:59:36.315Z,18.07
